sensor_id;sensor_type;location;lat;lon;timestamp;pressure;altitude;pressure_sealevel;temperature
70668;BMP280;58242;51.250;-1.118;2024-02-04T00:00:42;101429.88;;;17.08
70668;BMP280;58242;51.250;-1.118;2024-02-04T00:03:07;101432.94;;;17.06
70668;BMP280;58242;51.250;-1.118;2024-02-04T00:05:33;101426.72;;;17.06
70668;BMP280;58242;51.250;-1.118;2024-02-04T00:07:58;101420.53;;;17.05
70668;BMP280;58242;51.250;-1.118;2024-02-04T00:10:23;101418.63;;;17.06
70668;BMP280;58242;51.250;-1.118;2024-02-04T00:12:49;101414.00;;;17.06
70668;BMP280;58242;51.250;-1.118;2024-02-04T00:15:14;101421.00;;;17.07
70668;BMP280;58242;51.250;-1.118;2024-02-04T00:17:40;101410.97;;;17.08
70668;BMP280;58242;51.250;-1.118;2024-02-04T00:20:06;101410.97;;;17.08
70668;BMP280;58242;51.250;-1.118;2024-02-04T00:22:32;101416.38;;;17.08
70668;BMP280;58242;51.250;-1.118;2024-02-04T00:24:59;101410.63;;;17.09
70668;BMP280;58242;51.250;-1.118;2024-02-04T00:27:30;101419.53;;;17.10
70668;BMP280;58242;51.250;-1.118;2024-02-04T00:29:56;101410.31;;;17.11
70668;BMP280;58242;51.250;-1.118;2024-02-04T00:32:21;101407.63;;;17.11
70668;BMP280;58242;51.250;-1.118;2024-02-04T00:34:46;101402.22;;;17.11
70668;BMP280;58242;51.250;-1.118;2024-02-04T00:37:12;101397.56;;;17.11
70668;BMP280;58242;51.250;-1.118;2024-02-04T00:39:37;101394.44;;;17.09
70668;BMP280;58242;51.250;-1.118;2024-02-04T00:42:03;101397.00;;;17.06
70668;BMP280;58242;51.250;-1.118;2024-02-04T00:44:28;101398.91;;;17.05
70668;BMP280;58242;51.250;-1.118;2024-02-04T00:46:53;101415.44;;;17.04
70668;BMP280;58242;51.250;-1.118;2024-02-04T00:49:19;101424.69;;;17.03
70668;BMP280;58242;51.250;-1.118;2024-02-04T00:51:44;101428.84;;;17.00
70668;BMP280;58242;51.250;-1.118;2024-02-04T00:54:09;101428.06;;;17.00
70668;BMP280;58242;51.250;-1.118;2024-02-04T00:56:35;101423.31;;;16.97
70668;BMP280;58242;51.250;-1.118;2024-02-04T00:59:00;101410.91;;;16.96
70668;BMP280;58242;51.250;-1.118;2024-02-04T01:01:25;101425.22;;;16.96
70668;BMP280;58242;51.250;-1.118;2024-02-04T01:03:51;101411.72;;;16.96
70668;BMP280;58242;51.250;-1.118;2024-02-04T01:06:16;101409.81;;;16.97
70668;BMP280;58242;51.250;-1.118;2024-02-04T01:08:41;101411.41;;;16.98
70668;BMP280;58242;51.250;-1.118;2024-02-04T01:11:07;101399.78;;;16.97
70668;BMP280;58242;51.250;-1.118;2024-02-04T01:13:33;101417.91;;;16.97
70668;BMP280;58242;51.250;-1.118;2024-02-04T01:15:58;101415.22;;;16.97
70668;BMP280;58242;51.250;-1.118;2024-02-04T01:18:23;101404.75;;;16.95
70668;BMP280;58242;51.250;-1.118;2024-02-04T01:20:49;101420.16;;;16.95
70668;BMP280;58242;51.250;-1.118;2024-02-04T01:23:15;101411.59;;;16.93
70668;BMP280;58242;51.250;-1.118;2024-02-04T01:25:43;101410.81;;;16.93
70668;BMP280;58242;51.250;-1.118;2024-02-04T01:28:08;101410.81;;;16.93
70668;BMP280;58242;51.250;-1.118;2024-02-04T01:30:33;101394.16;;;16.91
70668;BMP280;58242;51.250;-1.118;2024-02-04T01:32:59;101382.56;;;16.90
70668;BMP280;58242;51.250;-1.118;2024-02-04T01:35:24;101377.16;;;16.90
70668;BMP280;58242;51.250;-1.118;2024-02-04T01:37:50;101368.25;;;16.90
70668;BMP280;58242;51.250;-1.118;2024-02-04T01:40:15;101374.44;;;16.90
70668;BMP280;58242;51.250;-1.118;2024-02-04T01:42:41;101357.13;;;16.91
70668;BMP280;58242;51.250;-1.118;2024-02-04T01:45:06;101352.84;;;16.90
70668;BMP280;58242;51.250;-1.118;2024-02-04T01:47:32;101361.72;;;16.91
70668;BMP280;58242;51.250;-1.118;2024-02-04T01:49:58;101351.25;;;16.89
70668;BMP280;58242;51.250;-1.118;2024-02-04T01:52:23;101342.81;;;16.91
70668;BMP280;58242;51.250;-1.118;2024-02-04T01:54:50;101342.81;;;16.91
70668;BMP280;58242;51.250;-1.118;2024-02-04T01:57:16;101337.41;;;16.91
70668;BMP280;58242;51.250;-1.118;2024-02-04T01:59:42;101350.13;;;16.90
70668;BMP280;58242;51.250;-1.118;2024-02-04T02:02:07;101348.22;;;16.91
70668;BMP280;58242;51.250;-1.118;2024-02-04T02:04:33;101351.25;;;16.89
70668;BMP280;58242;51.250;-1.118;2024-02-04T02:06:59;101355.06;;;16.88
70668;BMP280;58242;51.250;-1.118;2024-02-04T02:09:25;101348.41;;;16.86
70668;BMP280;58242;51.250;-1.118;2024-02-04T02:12:01;101348.75;;;16.84
70668;BMP280;58242;51.250;-1.118;2024-02-04T02:14:31;101354.78;;;16.81
70668;BMP280;58242;51.250;-1.118;2024-02-04T02:17:00;101357.06;;;16.79
70668;BMP280;58242;51.250;-1.118;2024-02-04T02:22:08;101359.97;;;16.75
70668;BMP280;58242;51.250;-1.118;2024-02-04T02:24:38;101366.81;;;16.72
70668;BMP280;58242;51.250;-1.118;2024-02-04T02:27:07;101369.06;;;16.70
70668;BMP280;58242;51.250;-1.118;2024-02-04T02:29:32;101364.44;;;16.71
70668;BMP280;58242;51.250;-1.118;2024-02-04T02:31:58;101368.25;;;16.70
70668;BMP280;58242;51.250;-1.118;2024-02-04T02:34:24;101359.41;;;16.69
70668;BMP280;58242;51.250;-1.118;2024-02-04T02:39:56;101383.91;;;16.64
70668;BMP280;58242;51.250;-1.118;2024-02-04T02:42:23;101388.94;;;16.66
70668;BMP280;58242;51.250;-1.118;2024-02-04T02:44:49;101391.31;;;16.67
70668;BMP280;58242;51.250;-1.118;2024-02-04T02:47:15;101392.13;;;16.68
70668;BMP280;58242;51.250;-1.118;2024-02-04T02:49:40;101390.53;;;16.67
70668;BMP280;58242;51.250;-1.118;2024-02-04T02:52:06;101378.94;;;16.66
70668;BMP280;58242;51.250;-1.118;2024-02-04T02:54:31;101356.53;;;16.66
70668;BMP280;58242;51.250;-1.118;2024-02-04T02:56:57;101348.78;;;16.64
70668;BMP280;58242;51.250;-1.118;2024-02-04T02:59:22;101353.41;;;16.64
70668;BMP280;58242;51.250;-1.118;2024-02-04T03:01:47;101350.25;;;16.62
70668;BMP280;58242;51.250;-1.118;2024-02-04T03:04:13;101342.16;;;16.62
70668;BMP280;58242;51.250;-1.118;2024-02-04T03:06:38;101341.00;;;16.63
70668;BMP280;58242;51.250;-1.118;2024-02-04T03:09:03;101348.78;;;16.64
70668;BMP280;58242;51.250;-1.118;2024-02-04T03:11:29;101348.13;;;16.67
70668;BMP280;58242;51.250;-1.118;2024-02-04T03:13:54;101338.91;;;16.68
70668;BMP280;58242;51.250;-1.118;2024-02-04T03:16:20;101353.19;;;16.69
70668;BMP280;58242;51.250;-1.118;2024-02-04T03:18:45;101352.06;;;16.70
70668;BMP280;58242;51.250;-1.118;2024-02-04T03:21:14;101357.13;;;16.71
70668;BMP280;58242;51.250;-1.118;2024-02-04T03:23:44;101358.72;;;16.72
70668;BMP280;58242;51.250;-1.118;2024-02-04T03:26:10;101355.22;;;16.72
70668;BMP280;58242;51.250;-1.118;2024-02-04T03:28:36;101357.13;;;16.71
70668;BMP280;58242;51.250;-1.118;2024-02-04T03:31:02;101367.16;;;16.71
70668;BMP280;58242;51.250;-1.118;2024-02-04T03:33:27;101357.13;;;16.71
70668;BMP280;58242;51.250;-1.118;2024-02-04T03:35:52;101355.22;;;16.72
70668;BMP280;58242;51.250;-1.118;2024-02-04T03:38:18;101362.22;;;16.73
70668;BMP280;58242;51.250;-1.118;2024-02-04T03:40:44;101339.81;;;16.72
70668;BMP280;58242;51.250;-1.118;2024-02-04T03:43:10;101341.25;;;16.70
70668;BMP280;58242;51.250;-1.118;2024-02-04T03:45:36;101333.16;;;16.70
70668;BMP280;58242;51.250;-1.118;2024-02-04T03:48:01;101323.50;;;16.69
70668;BMP280;58242;51.250;-1.118;2024-02-04T03:50:27;101334.63;;;16.67
70668;BMP280;58242;51.250;-1.118;2024-02-04T03:52:52;101341.13;;;16.66
70668;BMP280;58242;51.250;-1.118;2024-02-04T03:55:18;101338.78;;;16.65
70668;BMP280;58242;51.250;-1.118;2024-02-04T03:57:44;101334.94;;;16.66
70668;BMP280;58242;51.250;-1.118;2024-02-04T04:00:10;101329.53;;;16.66
70668;BMP280;58242;51.250;-1.118;2024-02-04T04:02:35;101323.03;;;16.67
70668;BMP280;58242;51.250;-1.118;2024-02-04T04:05:01;101322.22;;;16.66
70668;BMP280;58242;51.250;-1.118;2024-02-04T04:07:26;101324.50;;;16.64
70668;BMP280;58242;51.250;-1.118;2024-02-04T04:09:51;101314.47;;;16.65
70668;BMP280;58242;51.250;-1.118;2024-02-04T04:12:17;101324.50;;;16.64
70668;BMP280;58242;51.250;-1.118;2024-02-04T04:14:42;101317.50;;;16.63
70668;BMP280;58242;51.250;-1.118;2024-02-04T04:17:07;101319.75;;;16.61
70668;BMP280;58242;51.250;-1.118;2024-02-04T04:19:33;101331.34;;;16.62
70668;BMP280;58242;51.250;-1.118;2024-02-04T04:22:01;101325.16;;;16.61
70668;BMP280;58242;51.250;-1.118;2024-02-04T04:24:27;101318.19;;;16.60
70668;BMP280;58242;51.250;-1.118;2024-02-04T04:26:52;101303.88;;;16.60
70668;BMP280;58242;51.250;-1.118;2024-02-04T04:29:17;101309.28;;;16.60
70668;BMP280;58242;51.250;-1.118;2024-02-04T04:31:43;101300.38;;;16.60
70668;BMP280;58242;51.250;-1.118;2024-02-04T04:34:08;101301.19;;;16.60
70668;BMP280;58242;51.250;-1.118;2024-02-04T04:36:33;101282.28;;;16.60
70668;BMP280;58242;51.250;-1.118;2024-02-04T04:38:59;101286.56;;;16.61
70668;BMP280;58242;51.250;-1.118;2024-02-04T04:41:25;101284.53;;;16.58
70668;BMP280;58242;51.250;-1.118;2024-02-04T04:43:50;101275.19;;;16.56
70668;BMP280;58242;51.250;-1.118;2024-02-04T04:46:15;101272.03;;;16.54
70668;BMP280;58242;51.250;-1.118;2024-02-04T04:48:41;101271.25;;;16.53
70668;BMP280;58242;51.250;-1.118;2024-02-04T04:51:11;101265.84;;;16.53
70668;BMP280;58242;51.250;-1.118;2024-02-04T04:53:36;101262.69;;;16.51
70668;BMP280;58242;51.250;-1.118;2024-02-04T04:56:02;101268.44;;;16.50
70668;BMP280;58242;51.250;-1.118;2024-02-04T04:58:27;101262.69;;;16.51
70668;BMP280;58242;51.250;-1.118;2024-02-04T05:00:53;101258.41;;;16.50
70668;BMP280;58242;51.250;-1.118;2024-02-04T05:03:18;101264.94;;;16.49
70668;BMP280;58242;51.250;-1.118;2024-02-04T05:05:44;101264.94;;;16.49
70668;BMP280;58242;51.250;-1.118;2024-02-04T05:08:09;101256.47;;;16.51
70668;BMP280;58242;51.250;-1.118;2024-02-04T05:10:35;101265.72;;;16.50
70668;BMP280;58242;51.250;-1.118;2024-02-04T05:13:01;101273.47;;;16.51
70668;BMP280;58242;51.250;-1.118;2024-02-04T05:15:26;101260.44;;;16.53
70668;BMP280;58242;51.250;-1.118;2024-02-04T05:17:51;101272.81;;;16.54
70668;BMP280;58242;51.250;-1.118;2024-02-04T05:20:16;101263.59;;;16.55
70668;BMP280;58242;51.250;-1.118;2024-02-04T05:22:42;101266.75;;;16.57
70668;BMP280;58242;51.250;-1.118;2024-02-04T05:25:07;101271.03;;;16.58
70668;BMP280;58242;51.250;-1.118;2024-02-04T05:27:34;101265.63;;;16.58
70668;BMP280;58242;51.250;-1.118;2024-02-04T05:29:59;101266.75;;;16.57
70668;BMP280;58242;51.250;-1.118;2024-02-04T05:32:25;101265.19;;;16.56
70668;BMP280;58242;51.250;-1.118;2024-02-04T05:34:50;101279.78;;;16.55
70668;BMP280;58242;51.250;-1.118;2024-02-04T05:37:15;101273.47;;;16.51
70668;BMP280;58242;51.250;-1.118;2024-02-04T05:39:41;101270.34;;;16.49
70668;BMP280;58242;51.250;-1.118;2024-02-04T05:42:06;101268.75;;;16.48
70668;BMP280;58242;51.250;-1.118;2024-02-04T05:44:31;101271.44;;;16.48
70668;BMP280;58242;51.250;-1.118;2024-02-04T05:46:57;101275.72;;;16.49
70668;BMP280;58242;51.250;-1.118;2024-02-04T05:49:22;101280.00;;;16.50
70668;BMP280;58242;51.250;-1.118;2024-02-04T05:51:48;101277.31;;;16.50
70668;BMP280;58242;51.250;-1.118;2024-02-04T05:54:13;101272.69;;;16.51
70668;BMP280;58242;51.250;-1.118;2024-02-04T05:56:38;101275.06;;;16.52
70668;BMP280;58242;51.250;-1.118;2024-02-04T05:59:04;101274.72;;;16.54
70668;BMP280;58242;51.250;-1.118;2024-02-04T06:01:30;101267.44;;;16.54
70668;BMP280;58242;51.250;-1.118;2024-02-04T06:03:55;101276.66;;;16.53
70668;BMP280;58242;51.250;-1.118;2024-02-04T06:06:21;101270.56;;;16.56
70668;BMP280;58242;51.250;-1.118;2024-02-04T06:08:47;101275.97;;;16.56
70668;BMP280;58242;51.250;-1.118;2024-02-04T06:11:13;101271.81;;;16.59
70668;BMP280;58242;51.250;-1.118;2024-02-04T06:13:40;101278.78;;;16.60
70668;BMP280;58242;51.250;-1.118;2024-02-04T06:16:06;101275.28;;;16.59
70668;BMP280;58242;51.250;-1.118;2024-02-04T06:18:31;101265.63;;;16.58
70668;BMP280;58242;51.250;-1.118;2024-02-04T06:20:57;101267.53;;;16.58
70668;BMP280;58242;51.250;-1.118;2024-02-04T06:23:22;101261.34;;;16.57
70668;BMP280;58242;51.250;-1.118;2024-02-04T06:25:47;101264.38;;;16.56
70668;BMP280;58242;51.250;-1.118;2024-02-04T06:28:13;101250.09;;;16.55
70668;BMP280;58242;51.250;-1.118;2024-02-04T06:30:38;101245.84;;;16.54
70668;BMP280;58242;51.250;-1.118;2024-02-04T06:33:04;101239.66;;;16.54
70668;BMP280;58242;51.250;-1.118;2024-02-04T06:35:29;101228.84;;;16.54
70668;BMP280;58242;51.250;-1.118;2024-02-04T06:37:55;101245.38;;;16.52
70668;BMP280;58242;51.250;-1.118;2024-02-04T06:40:20;101238.38;;;16.51
70668;BMP280;58242;51.250;-1.118;2024-02-04T06:42:45;101243.34;;;16.49
70668;BMP280;58242;51.250;-1.118;2024-02-04T06:45:11;101243.66;;;16.48
70668;BMP280;58242;51.250;-1.118;2024-02-04T06:47:36;101237.16;;;16.49
70668;BMP280;58242;51.250;-1.118;2024-02-04T06:50:02;101238.72;;;16.50
70668;BMP280;58242;51.250;-1.118;2024-02-04T06:52:31;101235.56;;;16.48
70668;BMP280;58242;51.250;-1.118;2024-02-04T06:54:56;101233.22;;;16.46
70668;BMP280;58242;51.250;-1.118;2024-02-04T06:57:22;101230.03;;;16.44
70668;BMP280;58242;51.250;-1.118;2024-02-04T06:59:47;101214.97;;;16.43
70668;BMP280;58242;51.250;-1.118;2024-02-04T07:02:12;101221.16;;;16.44
70668;BMP280;58242;51.250;-1.118;2024-02-04T07:04:38;101209.91;;;16.42
70668;BMP280;58242;51.250;-1.118;2024-02-04T07:07:03;101221.50;;;16.43
70668;BMP280;58242;51.250;-1.118;2024-02-04T07:09:28;101226.91;;;16.43
70668;BMP280;58242;51.250;-1.118;2024-02-04T07:11:54;101227.69;;;16.43
70668;BMP280;58242;51.250;-1.118;2024-02-04T07:14:19;101231.94;;;16.44
70668;BMP280;58242;51.250;-1.118;2024-02-04T07:16:45;101227.34;;;16.44
70668;BMP280;58242;51.250;-1.118;2024-02-04T07:19:10;101228.47;;;16.43
70668;BMP280;58242;51.250;-1.118;2024-02-04T07:21:35;101228.59;;;16.47
70668;BMP280;58242;51.250;-1.118;2024-02-04T07:24:01;101234.78;;;16.47
70668;BMP280;58242;51.250;-1.118;2024-02-04T07:26:26;101233.66;;;16.48
70668;BMP280;58242;51.250;-1.118;2024-02-04T07:28:52;101233.66;;;16.48
70668;BMP280;58242;51.250;-1.118;2024-02-04T07:31:18;101234.78;;;16.47
70668;BMP280;58242;51.250;-1.118;2024-02-04T07:33:44;101226.22;;;16.45
70668;BMP280;58242;51.250;-1.118;2024-02-04T07:36:10;101241.31;;;16.46
70668;BMP280;58242;51.250;-1.118;2024-02-04T07:38:36;101227.03;;;16.46
70668;BMP280;58242;51.250;-1.118;2024-02-04T07:41:01;101233.22;;;16.46
70668;BMP280;58242;51.250;-1.118;2024-02-04T07:43:27;101238.25;;;16.48
70668;BMP280;58242;51.250;-1.118;2024-02-04T07:45:53;101234.00;;;16.47
70668;BMP280;58242;51.250;-1.118;2024-02-04T07:48:18;101245.56;;;16.47
70668;BMP280;58242;51.250;-1.118;2024-02-04T07:50:45;101241.75;;;16.48
70668;BMP280;58242;51.250;-1.118;2024-02-04T07:53:10;101246.03;;;16.49
70668;BMP280;58242;51.250;-1.118;2024-02-04T07:55:36;101257.28;;;16.51
70668;BMP280;58242;51.250;-1.118;2024-02-04T07:58:01;101260.44;;;16.53
70668;BMP280;58242;51.250;-1.118;2024-02-04T08:00:27;101256.63;;;16.54
70668;BMP280;58242;51.250;-1.118;2024-02-04T08:02:52;101254.69;;;16.55
70668;BMP280;58242;51.250;-1.118;2024-02-04T08:05:17;101271.03;;;16.58
70668;BMP280;58242;51.250;-1.118;2024-02-04T08:07:43;101264.50;;;16.59
70668;BMP280;58242;51.250;-1.118;2024-02-04T08:10:08;101272.28;;;16.60
70668;BMP280;58242;51.250;-1.118;2024-02-04T08:12:34;101268.47;;;16.61
70668;BMP280;58242;51.250;-1.118;2024-02-04T08:15:00;101271.94;;;16.62
70668;BMP280;58242;51.250;-1.118;2024-02-04T08:17:25;101263.19;;;16.65
70668;BMP280;58242;51.250;-1.118;2024-02-04T08:19:51;101263.63;;;16.67
70668;BMP280;58242;51.250;-1.118;2024-02-04T08:22:16;101268.69;;;16.68
70668;BMP280;58242;51.250;-1.118;2024-02-04T08:24:43;101268.03;;;16.71
70668;BMP280;58242;51.250;-1.118;2024-02-04T08:27:08;101273.09;;;16.73
70668;BMP280;58242;51.250;-1.118;2024-02-04T08:29:34;101277.34;;;16.74
70668;BMP280;58242;51.250;-1.118;2024-02-04T08:31:59;101267.81;;;16.76
70668;BMP280;58242;51.250;-1.118;2024-02-04T08:34:25;101266.34;;;16.78
70668;BMP280;58242;51.250;-1.118;2024-02-04T08:36:51;101265.22;;;16.79
70668;BMP280;58242;51.250;-1.118;2024-02-04T08:39:16;101268.38;;;16.81
70668;BMP280;58242;51.250;-1.118;2024-02-04T08:41:42;101270.41;;;16.84
70668;BMP280;58242;51.250;-1.118;2024-02-04T08:44:07;101273.25;;;16.88
70668;BMP280;58242;51.250;-1.118;2024-02-04T08:46:32;101266.41;;;16.90
70668;BMP280;58242;51.250;-1.118;2024-02-04T08:48:58;101271.47;;;16.92
70668;BMP280;58242;51.250;-1.118;2024-02-04T08:51:23;101283.06;;;16.92
70668;BMP280;58242;51.250;-1.118;2024-02-04T08:53:49;101275.72;;;16.93
70668;BMP280;58242;51.250;-1.118;2024-02-04T08:56:14;101283.06;;;16.92
70668;BMP280;58242;51.250;-1.118;2024-02-04T08:58:39;101284.97;;;16.92
70668;BMP280;58242;51.250;-1.118;2024-02-04T09:01:05;101280.69;;;16.91
70668;BMP280;58242;51.250;-1.118;2024-02-04T09:03:31;101274.50;;;16.90
70668;BMP280;58242;51.250;-1.118;2024-02-04T09:05:57;101278.00;;;16.91
70668;BMP280;58242;51.250;-1.118;2024-02-04T09:08:22;101276.53;;;16.93
70668;BMP280;58242;51.250;-1.118;2024-02-04T09:10:48;101288.91;;;16.94
70668;BMP280;58242;51.250;-1.118;2024-02-04T09:13:13;101277.78;;;16.95
70668;BMP280;58242;51.250;-1.118;2024-02-04T09:15:39;101276.63;;;16.96
70668;BMP280;58242;51.250;-1.118;2024-02-04T09:18:04;101277.91;;;16.99
70668;BMP280;58242;51.250;-1.118;2024-02-04T09:20:30;101282.63;;;17.02
70668;BMP280;58242;51.250;-1.118;2024-02-04T09:22:55;101281.50;;;17.03
70668;BMP280;58242;51.250;-1.118;2024-02-04T09:25:20;101286.91;;;17.03
70668;BMP280;58242;51.250;-1.118;2024-02-04T09:27:46;101298.16;;;17.05
70668;BMP280;58242;51.250;-1.118;2024-02-04T09:30:11;101293.66;;;17.09
70668;BMP280;58242;51.250;-1.118;2024-02-04T09:32:37;101301.09;;;17.12
70668;BMP280;58242;51.250;-1.118;2024-02-04T09:35:03;101299.28;;;17.15
70668;BMP280;58242;51.250;-1.118;2024-02-04T09:37:28;101285.13;;;17.18
70668;BMP280;58242;51.250;-1.118;2024-02-04T09:39:54;101289.84;;;17.21
70668;BMP280;58242;51.250;-1.118;2024-02-04T09:42:20;101292.31;;;17.26
70668;BMP280;58242;51.250;-1.118;2024-02-04T09:44:49;101291.28;;;17.30
70668;BMP280;58242;51.250;-1.118;2024-02-04T09:47:15;101281.63;;;17.29
70668;BMP280;58242;51.250;-1.118;2024-02-04T09:49:42;101287.47;;;17.31
70668;BMP280;58242;51.250;-1.118;2024-02-04T09:52:08;101299.06;;;17.32
70668;BMP280;58242;51.250;-1.118;2024-02-04T09:55:00;101294.34;;;17.29
70668;BMP280;58242;51.250;-1.118;2024-02-04T09:57:26;101294.00;;;17.30
70668;BMP280;58242;51.250;-1.118;2024-02-04T09:59:52;101309.41;;;17.30
70668;BMP280;58242;51.250;-1.118;2024-02-04T10:02:17;101305.94;;;17.29
70668;BMP280;58242;51.250;-1.118;2024-02-04T10:04:43;101304.47;;;17.32
70668;BMP280;58242;51.250;-1.118;2024-02-04T10:07:09;101306.06;;;17.33
70668;BMP280;58242;51.250;-1.118;2024-02-04T10:09:34;101309.56;;;17.33
70668;BMP280;58242;51.250;-1.118;2024-02-04T10:12:00;101305.72;;;17.34
70668;BMP280;58242;51.250;-1.118;2024-02-04T10:14:25;101301.56;;;17.37
70668;BMP280;58242;51.250;-1.118;2024-02-04T10:16:50;101307.41;;;17.39
70668;BMP280;58242;51.250;-1.118;2024-02-04T10:19:16;101296.69;;;17.42
70668;BMP280;58242;51.250;-1.118;2024-02-04T10:21:42;101305.72;;;17.46
70668;BMP280;58242;51.250;-1.118;2024-02-04T10:24:07;101307.72;;;17.49
70668;BMP280;58242;51.250;-1.118;2024-02-04T10:26:33;101307.06;;;17.52
70668;BMP280;58242;51.250;-1.118;2024-02-04T10:29:03;101306.06;;;17.56
70668;BMP280;58242;51.250;-1.118;2024-02-04T10:31:29;101301.88;;;17.59
70668;BMP280;58242;51.250;-1.118;2024-02-04T10:33:55;101304.22;;;17.60
70668;BMP280;58242;51.250;-1.118;2024-02-04T10:36:20;101304.69;;;17.62
70668;BMP280;58242;51.250;-1.118;2024-02-04T10:38:46;101294.31;;;17.64
70668;BMP280;58242;51.250;-1.118;2024-02-04T10:41:15;101306.50;;;17.70
70668;BMP280;58242;51.250;-1.118;2024-02-04T10:43:42;101299.25;;;17.74
70668;BMP280;58242;51.250;-1.118;2024-02-04T10:48:42;101310.78;;;17.82
70668;BMP280;58242;51.250;-1.118;2024-02-04T10:51:13;101310.53;;;17.87
70668;BMP280;58242;51.250;-1.118;2024-02-04T10:53:42;101303.78;;;17.93
70668;BMP280;58242;51.250;-1.118;2024-02-04T10:56:17;101308.50;;;17.96
70668;BMP280;58242;51.250;-1.118;2024-02-04T10:58:44;101316.38;;;18.01
70668;BMP280;58242;51.250;-1.118;2024-02-04T11:01:11;101313.41;;;18.06
70668;BMP280;58242;51.250;-1.118;2024-02-04T11:03:37;101319.72;;;18.10
70668;BMP280;58242;51.250;-1.118;2024-02-04T11:06:04;101320.63;;;18.14
70668;BMP280;58242;51.250;-1.118;2024-02-04T11:08:29;101314.97;;;18.18
70668;BMP280;58242;51.250;-1.118;2024-02-04T11:10:55;101303.91;;;18.23
70668;BMP280;58242;51.250;-1.118;2024-02-04T11:13:22;101308.38;;;18.31
70668;BMP280;58242;51.250;-1.118;2024-02-04T11:15:48;101308.47;;;18.34
70668;BMP280;58242;51.250;-1.118;2024-02-04T11:19:08;101291.22;;;18.39
70668;BMP280;58242;51.250;-1.118;2024-02-04T11:26:53;101278.75;;;18.49
70668;BMP280;58242;51.250;-1.118;2024-02-04T11:29:18;101275.41;;;18.56
70668;BMP280;58242;51.250;-1.118;2024-02-04T11:31:44;101268.72;;;18.65
70668;BMP280;58242;51.250;-1.118;2024-02-04T11:34:10;101266.75;;;18.77
70668;BMP280;58242;51.250;-1.118;2024-02-04T11:36:39;101254.59;;;18.86
70668;BMP280;58242;51.250;-1.118;2024-02-04T11:39:12;101251.66;;;18.91
70668;BMP280;58242;51.250;-1.118;2024-02-04T11:41:45;101248.56;;;18.93
70668;BMP280;58242;51.250;-1.118;2024-02-04T11:44:12;101252.44;;;18.92
70668;BMP280;58242;51.250;-1.118;2024-02-04T11:46:37;101239.94;;;18.87
70668;BMP280;58242;51.250;-1.118;2024-02-04T11:49:03;101238.34;;;18.86
70668;BMP280;58242;51.250;-1.118;2024-02-04T11:51:29;101249.97;;;18.87
70668;BMP280;58242;51.250;-1.118;2024-02-04T11:53:55;101250.69;;;18.84
70668;BMP280;58242;51.250;-1.118;2024-02-04T11:56:21;101258.28;;;18.79
70668;BMP280;58242;51.250;-1.118;2024-02-04T11:58:49;101250.84;;;18.76
70668;BMP280;58242;51.250;-1.118;2024-02-04T12:01:14;101247.69;;;18.74
70668;BMP280;58242;51.250;-1.118;2024-02-04T12:03:40;101246.13;;;18.73
70668;BMP280;58242;51.250;-1.118;2024-02-04T12:06:06;101235.19;;;18.69
70668;BMP280;58242;51.250;-1.118;2024-02-04T12:08:33;101243.19;;;18.66
70668;BMP280;58242;51.250;-1.118;2024-02-04T12:10:59;101243.88;;;18.63
70668;BMP280;58242;51.250;-1.118;2024-02-04T12:13:25;101241.44;;;18.58
70668;BMP280;58242;51.250;-1.118;2024-02-04T12:15:52;101241.69;;;18.53
70668;BMP280;58242;51.250;-1.118;2024-02-04T12:18:18;101237.31;;;18.49
70668;BMP280;58242;51.250;-1.118;2024-02-04T12:20:46;101230.25;;;18.45
70668;BMP280;58242;51.250;-1.118;2024-02-04T12:23:12;101232.84;;;18.41
70668;BMP280;58242;51.250;-1.118;2024-02-04T12:25:38;101235.47;;;18.38
70668;BMP280;58242;51.250;-1.118;2024-02-04T12:28:03;101223.06;;;18.37
70668;BMP280;58242;51.250;-1.118;2024-02-04T12:30:30;101222.28;;;18.36
70668;BMP280;58242;51.250;-1.118;2024-02-04T12:33:03;101225.59;;;18.30
70668;BMP280;58242;51.250;-1.118;2024-02-04T12:35:32;101216.91;;;18.25
70668;BMP280;58242;51.250;-1.118;2024-02-04T12:37:58;101225.63;;;18.18
70668;BMP280;58242;51.250;-1.118;2024-02-04T12:40:28;101217.75;;;18.14
70668;BMP280;58242;51.250;-1.118;2024-02-04T12:42:57;101216.09;;;18.09
70668;BMP280;58242;51.250;-1.118;2024-02-04T12:45:23;101205.94;;;18.06
70668;BMP280;58242;51.250;-1.118;2024-02-04T12:47:51;101204.81;;;18.07
70668;BMP280;58242;51.250;-1.118;2024-02-04T12:50:17;101204.50;;;18.09
70668;BMP280;58242;51.250;-1.118;2024-02-04T12:52:47;101202.66;;;18.13
70668;BMP280;58242;51.250;-1.118;2024-02-04T12:55:28;101207.38;;;18.15
70668;BMP280;58242;51.250;-1.118;2024-02-04T12:58:07;101195.06;;;18.18
70668;BMP280;58242;51.250;-1.118;2024-02-04T13:00:36;101198.38;;;18.12
70668;BMP280;58242;51.250;-1.118;2024-02-04T13:03:03;101201.19;;;18.15
70668;BMP280;58242;51.250;-1.118;2024-02-04T13:05:28;101200.84;;;18.16
70668;BMP280;58242;51.250;-1.118;2024-02-04T13:07:59;101198.47;;;18.15
70668;BMP280;58242;51.250;-1.118;2024-02-04T13:10:30;101198.16;;;18.16
70668;BMP280;58242;51.250;-1.118;2024-02-04T13:13:08;101205.56;;;18.19
70668;BMP280;58242;51.250;-1.118;2024-02-04T13:15:40;101203.28;;;18.21
70668;BMP280;58242;51.250;-1.118;2024-02-04T13:18:07;101205.19;;;18.21
70668;BMP280;58242;51.250;-1.118;2024-02-04T13:20:33;101201.72;;;18.20
70668;BMP280;58242;51.250;-1.118;2024-02-04T13:22:58;101205.19;;;18.21
70668;BMP280;58242;51.250;-1.118;2024-02-04T13:25:25;101198.31;;;18.23
70668;BMP280;58242;51.250;-1.118;2024-02-04T13:27:51;101209.59;;;18.25
70668;BMP280;58242;51.250;-1.118;2024-02-04T13:30:17;101201.91;;;18.27
70668;BMP280;58242;51.250;-1.118;2024-02-04T13:32:44;101205.06;;;18.29
70668;BMP280;58242;51.250;-1.118;2024-02-04T13:35:10;101208.88;;;18.28
70668;BMP280;58242;51.250;-1.118;2024-02-04T13:37:39;101198.75;;;18.25
70668;BMP280;58242;51.250;-1.118;2024-02-04T13:40:05;101197.63;;;18.26
70668;BMP280;58242;51.250;-1.118;2024-02-04T13:42:32;101191.75;;;18.24
70668;BMP280;58242;51.250;-1.118;2024-02-04T13:44:58;101197.19;;;18.24
70668;BMP280;58242;51.250;-1.118;2024-02-04T13:47:24;101198.75;;;18.25
70668;BMP280;58242;51.250;-1.118;2024-02-04T13:49:50;101195.72;;;18.27
70668;BMP280;58242;51.250;-1.118;2024-02-04T13:52:15;101190.72;;;18.29